createdAt,value
2019-06-19T00:00:33.275Z,75.46
2019-06-19T00:01:32.927Z,75.84
2019-06-19T00:02:33.168Z,73.54
2019-06-19T00:03:32.972Z,72.86
2019-06-19T00:04:32.968Z,71.52
2019-06-19T00:05:33.312Z,71.14
2019-06-19T00:06:32.789Z,72.67
2019-06-19T00:07:32.379Z,71.71
2019-06-19T00:08:33.529Z,72.86
2019-06-19T00:09:33.143Z,74.21
2019-06-19T00:10:32.748Z,75.07
2019-06-19T00:11:33.334Z,74.11
2019-06-19T00:12:33.232Z,74.02
2019-06-19T00:13:32.942Z,74.11
2019-06-19T00:14:33.242Z,74.40
2019-06-19T00:15:32.919Z,73.35
2019-06-19T00:16:32.907Z,71.71
2019-06-19T00:17:33.052Z,71.52
2019-06-19T00:18:33.464Z,71.14
2019-06-19T00:19:36.725Z,70.75
2019-06-19T00:20:33.510Z,70.27
2019-06-19T00:21:33.663Z,69.50
2019-06-19T00:22:33.994Z,68.51
2019-06-19T00:23:33.969Z,68.98
2019-06-19T00:24:34.123Z,68.98
2019-06-19T00:25:34.276Z,69.75
2019-06-19T00:26:34.432Z,69.50
2019-06-19T00:27:34.583Z,69.46
2019-06-19T00:28:34.734Z,68.12
2019-06-19T00:29:40.339Z,68.70
2019-06-19T00:30:35.041Z,66.77
2019-06-19T00:31:35.196Z,65.91
2019-06-19T00:32:35.348Z,65.62
2019-06-19T00:33:35.500Z,66.10
2019-06-19T00:34:35.653Z,65.81
2019-06-19T00:35:35.805Z,66.68
2019-06-19T00:36:35.959Z,68.12
2019-06-19T00:37:36.110Z,66.77
2019-06-19T00:38:36.264Z,64.95
2019-06-19T00:39:36.420Z,65.72
2019-06-19T00:40:36.572Z,67.64
2019-06-19T00:41:36.725Z,68.21
2019-06-19T00:42:36.879Z,66.97
2019-06-19T00:43:37.033Z,65.91
2019-06-19T00:44:37.184Z,63.99
2019-06-19T00:45:37.336Z,61.87
2019-06-19T00:46:37.494Z,61.20
2019-06-19T00:47:37.642Z,61.40
2019-06-19T00:48:37.794Z,62.55
2019-06-19T00:49:37.950Z,61.84
2019-06-19T00:50:38.103Z,61.94
2019-06-19T00:51:38.256Z,61.27
2019-06-19T00:52:40.704Z,62.42
2019-06-19T00:53:38.566Z,63.89
2019-06-19T00:54:38.726Z,64.56
2019-06-19T00:55:40.764Z,63.76
2019-06-19T00:56:40.760Z,62.04
2019-06-19T00:57:41.038Z,63.89
2019-06-19T00:58:41.727Z,64.37
2019-06-19T00:59:52.348Z,65.05
2019-06-19T01:00:41.279Z,64.47
2019-06-19T01:01:41.639Z,63.60
2019-06-19T01:02:40.693Z,61.75
2019-06-19T01:03:41.464Z,62.81
2019-06-19T01:04:40.787Z,63.57
2019-06-19T01:05:41.602Z,61.84
2019-06-19T01:06:40.717Z,61.08
2019-06-19T01:07:41.449Z,60.88
2019-06-19T01:08:42.016Z,61.27
2019-06-19T01:09:41.481Z,63.96
2019-06-19T01:10:41.728Z,64.25
2019-06-19T01:11:41.317Z,62.04
2019-06-19T01:12:41.656Z,60.78
2019-06-19T01:13:41.662Z,58.87
2019-06-19T01:14:41.774Z,58.20
2019-06-19T01:15:42.344Z,58.87
2019-06-19T01:16:42.115Z,60.21
2019-06-19T01:17:42.231Z,60.11
2019-06-19T01:18:42.383Z,59.34
2019-06-19T01:19:42.537Z,58.87
2019-06-19T01:20:42.690Z,58.87
2019-06-19T01:21:42.842Z,58.96
2019-06-19T01:22:42.992Z,58.77
2019-06-19T01:23:43.145Z,58.17
2019-06-19T01:24:43.301Z,57.68
2019-06-19T01:25:43.452Z,57.59
2019-06-19T01:26:43.646Z,55.86
2019-06-19T01:27:43.762Z,55.96
2019-06-19T01:28:43.929Z,56.34
2019-06-19T01:29:44.072Z,56.15
2019-06-19T01:30:44.234Z,56.63
2019-06-19T01:31:44.387Z,51.93
2019-06-19T01:32:44.524Z,52.89
2019-06-19T01:33:44.685Z,52.40
2019-06-19T01:34:44.832Z,51.45
2019-06-19T01:35:44.987Z,52.22
2019-06-19T01:36:45.138Z,51.54
2019-06-19T01:37:45.290Z,52.22
2019-06-19T01:38:45.445Z,52.89
2019-06-19T01:39:45.597Z,51.83
2019-06-19T01:40:45.749Z,52.31
2019-06-19T01:41:45.905Z,52.22
2019-06-19T01:42:46.058Z,52.31
2019-06-19T01:43:46.211Z,53.27
2019-06-19T01:44:46.362Z,52.79
2019-06-19T01:45:46.522Z,53.85
2019-06-19T01:46:46.665Z,54.04
2019-06-19T01:47:46.827Z,52.76
2019-06-19T01:48:46.969Z,51.25
2019-06-19T01:49:47.144Z,49.02
2019-06-19T01:50:47.273Z,46.24
2019-06-19T01:51:47.428Z,45.95
2019-06-19T01:52:47.581Z,46.43
2019-06-19T01:53:47.736Z,48.47
2019-06-19T01:54:47.894Z,49.69
2019-06-19T01:55:48.039Z,50.87
2019-06-19T01:56:48.194Z,52.00
2019-06-19T01:57:48.349Z,54.39
2019-06-19T01:58:50.727Z,52.86
2019-06-19T01:59:50.810Z,52.67
2019-06-19T02:00:51.134Z,50.56
2019-06-19T02:01:51.740Z,50.27
2019-06-19T02:02:51.233Z,49.98
2019-06-19T02:03:51.427Z,49.21
2019-06-19T02:04:51.018Z,47.97
2019-06-19T02:05:50.956Z,49.21
2019-06-19T02:06:52.141Z,49.31
2019-06-19T02:07:51.553Z,48.35
2019-06-19T02:08:51.168Z,49.21
2019-06-19T02:09:51.593Z,49.88
2019-06-19T02:10:51.443Z,50.46
2019-06-19T02:11:51.007Z,50.94
2019-06-19T02:12:51.676Z,48.74
2019-06-19T02:13:51.360Z,48.16
2019-06-19T02:14:51.185Z,48.74
2019-06-19T02:15:51.088Z,47.87
2019-06-19T02:16:52.188Z,45.83
2019-06-19T02:17:51.657Z,44.40
2019-06-19T02:18:51.766Z,43.34
2019-06-19T02:19:51.699Z,42.67
2019-06-19T02:20:51.858Z,42.00
2019-06-19T02:21:52.004Z,42.96
2019-06-19T02:22:52.159Z,44.20
2019-06-19T02:23:52.314Z,44.87
2019-06-19T02:24:52.459Z,45.36
2019-06-19T02:25:54.406Z,45.83
2019-06-19T02:26:52.766Z,46.70
2019-06-19T02:27:52.915Z,46.79
2019-06-19T02:28:53.071Z,46.41
2019-06-19T02:29:53.225Z,44.40
2019-06-19T02:31:04.515Z,44.97
2019-06-19T02:31:54.274Z,45.93
2019-06-19T02:32:53.682Z,46.12
2019-06-19T02:33:53.834Z,46.03
2019-06-19T02:34:53.988Z,45.83
2019-06-19T02:35:54.141Z,44.87
2019-06-19T02:36:54.298Z,44.11
2019-06-19T02:37:54.448Z,44.11
2019-06-19T02:38:54.602Z,42.57
2019-06-19T02:39:54.752Z,42.86
2019-06-19T02:40:54.904Z,41.23
2019-06-19T02:41:55.057Z,40.56
2019-06-19T02:42:55.212Z,40.56
2019-06-19T02:43:55.366Z,41.13
2019-06-19T02:44:55.518Z,42.21
2019-06-19T02:45:55.670Z,42.60
2019-06-19T02:46:55.823Z,43.73
2019-06-19T02:47:55.976Z,44.51
2019-06-19T02:48:56.127Z,43.91
2019-06-19T02:49:56.284Z,42.86
2019-06-19T02:50:56.432Z,42.77
2019-06-19T02:51:56.590Z,44.97
2019-06-19T02:52:56.738Z,43.15
2019-06-19T02:53:56.892Z,42.00
2019-06-19T02:54:57.045Z,41.33
2019-06-19T02:55:57.199Z,42.67
2019-06-19T02:56:57.352Z,44.11
2019-06-19T02:57:57.506Z,43.82
2019-06-19T02:58:57.662Z,42.10
2019-06-19T02:59:57.811Z,40.84
2019-06-19T03:01:10.293Z,41.61
2019-06-19T03:01:58.120Z,41.71
2019-06-19T03:02:58.285Z,42.10
2019-06-19T03:03:58.427Z,42.38
2019-06-19T03:04:58.596Z,42.47
2019-06-19T03:05:58.744Z,42.77
2019-06-19T03:06:58.901Z,43.34
2019-06-19T03:07:59.052Z,42.86
2019-06-19T03:08:59.208Z,42.19
2019-06-19T03:09:59.362Z,42.57
2019-06-19T03:10:59.516Z,42.57
2019-06-19T03:11:59.672Z,42.10
2019-06-19T03:12:59.822Z,42.29
2019-06-19T03:13:59.977Z,41.90
2019-06-19T03:15:00.140Z,42.38
2019-06-19T03:16:00.281Z,43.34
2019-06-19T03:17:00.437Z,43.82
2019-06-19T03:18:00.591Z,42.29
2019-06-19T03:19:00.743Z,40.08
2019-06-19T03:20:00.900Z,38.07
2019-06-19T03:21:01.048Z,37.95
2019-06-19T03:22:01.201Z,36.71
2019-06-19T03:23:01.355Z,36.53
2019-06-19T03:24:01.514Z,37.30
2019-06-19T03:25:01.793Z,38.93
2019-06-19T03:26:01.805Z,39.98
2019-06-19T03:27:02.158Z,39.77
2019-06-19T03:28:02.125Z,39.48
2019-06-19T03:29:02.269Z,38.81
2019-06-19T03:30:02.424Z,37.38
2019-06-19T03:31:02.579Z,36.99
2019-06-19T03:32:02.732Z,37.66
2019-06-19T03:33:02.984Z,38.81
2019-06-19T03:34:03.038Z,39.22
2019-06-19T03:35:03.191Z,40.27
2019-06-19T03:36:03.350Z,40.94
2019-06-19T03:37:03.499Z,42.19
2019-06-19T03:38:03.654Z,42.00
2019-06-19T03:39:03.800Z,42.67
2019-06-19T03:40:03.959Z,43.63
2019-06-19T03:41:04.104Z,43.63
2019-06-19T03:42:04.260Z,45.45
2019-06-19T03:43:04.409Z,46.60
2019-06-19T03:44:04.564Z,46.60
2019-06-19T03:45:04.719Z,46.70
2019-06-19T03:46:04.869Z,47.75
2019-06-19T03:47:05.025Z,48.80
2019-06-19T03:48:05.177Z,47.27
2019-06-19T03:49:05.332Z,46.41
2019-06-19T03:50:05.483Z,46.70
2019-06-19T03:51:05.637Z,48.04
2019-06-19T03:52:05.789Z,48.52
2019-06-19T03:53:05.942Z,47.37
2019-06-19T03:54:06.104Z,46.31
2019-06-19T03:55:06.253Z,45.36
2019-06-19T03:56:06.406Z,45.74
2019-06-19T03:57:06.562Z,45.64
2019-06-19T03:58:06.715Z,44.78
2019-06-19T03:59:06.867Z,43.82
2019-06-19T04:00:07.022Z,44.87
2019-06-19T04:01:07.174Z,45.83
2019-06-19T04:02:07.327Z,47.68
2019-06-19T04:03:07.480Z,49.29
2019-06-19T04:04:07.637Z,48.71
2019-06-19T04:05:07.791Z,46.03
2019-06-19T04:06:07.942Z,44.11
2019-06-19T04:07:08.100Z,41.90
2019-06-19T04:08:08.250Z,40.94
2019-06-19T04:09:08.402Z,40.66
2019-06-19T04:10:08.557Z,40.17
2019-06-19T04:11:08.708Z,39.79
2019-06-19T04:12:08.866Z,39.79
2019-06-19T04:13:09.019Z,39.98
2019-06-19T04:14:09.172Z,40.75
2019-06-19T04:15:09.326Z,42.38
2019-06-19T04:16:09.634Z,45.07
2019-06-19T04:17:09.635Z,47.97
2019-06-19T04:18:09.782Z,49.88
2019-06-19T04:19:09.934Z,51.78
2019-06-19T04:20:10.091Z,51.51
2019-06-19T04:21:10.243Z,51.32
2019-06-19T04:22:10.396Z,52.67
2019-06-19T04:23:10.550Z,55.26
2019-06-19T04:24:10.703Z,56.70
2019-06-19T04:25:10.857Z,57.65
2019-06-19T04:26:11.010Z,56.79
2019-06-19T04:27:11.164Z,55.35
2019-06-19T04:28:11.344Z,54.49
2019-06-19T04:29:11.504Z,54.39
2019-06-19T04:30:11.627Z,56.63
2019-06-19T04:31:11.780Z,57.37
2019-06-19T04:32:14.424Z,57.46
2019-06-19T04:33:12.090Z,56.63
2019-06-19T04:34:12.251Z,58.74
2019-06-19T04:35:12.411Z,59.51
2019-06-19T04:36:12.556Z,60.75
2019-06-19T04:37:12.711Z,60.18
2019-06-19T04:38:12.865Z,59.89
2019-06-19T04:39:13.019Z,62.52
2019-06-19T04:40:13.173Z,64.25
2019-06-19T04:41:13.326Z,66.46
2019-06-19T04:42:13.480Z,69.14
2019-06-19T04:43:13.637Z,67.99
2019-06-19T04:44:13.790Z,71.25
2019-06-19T04:45:13.944Z,70.20
2019-06-19T04:46:14.097Z,71.10
2019-06-19T04:47:16.113Z,70.87
2019-06-19T04:48:14.411Z,71.25
2019-06-19T04:49:14.535Z,70.49
2019-06-19T04:50:14.690Z,68.98
2019-06-19T04:51:14.845Z,70.10
2019-06-19T04:52:15.013Z,71.77
2019-06-19T04:53:15.157Z,68.41
2019-06-19T04:54:15.310Z,71.39
2019-06-19T04:55:15.538Z,70.72
2019-06-19T04:56:15.624Z,73.41
2019-06-19T04:57:15.783Z,73.79
2019-06-19T04:58:15.942Z,73.88
2019-06-19T04:59:16.089Z,73.11
2019-06-19T05:00:16.243Z,72.34
2019-06-19T05:01:16.398Z,72.64
2019-06-19T05:02:21.032Z,73.88
2019-06-19T05:03:16.710Z,76.14
2019-06-19T05:04:16.862Z,77.09
2019-06-19T05:05:17.020Z,78.34
2019-06-19T05:06:17.177Z,78.06
2019-06-19T05:07:17.328Z,79.79
2019-06-19T05:08:17.480Z,80.36
2019-06-19T05:09:17.635Z,80.94
2019-06-19T05:10:17.791Z,82.38
2019-06-19T05:11:17.948Z,81.37
2019-06-19T05:12:18.103Z,82.23
2019-06-19T05:13:18.274Z,83.48
2019-06-19T05:14:18.409Z,83.19
2019-06-19T05:15:18.568Z,83.48
2019-06-19T05:16:18.721Z,83.19
2019-06-19T05:17:18.876Z,80.40
2019-06-19T05:18:19.032Z,80.02
2019-06-19T05:19:19.190Z,83.09
2019-06-19T05:20:19.344Z,82.17
2019-06-19T05:21:19.499Z,79.96
2019-06-19T05:22:19.653Z,82.46
2019-06-19T05:23:21.162Z,82.42
2019-06-19T05:24:19.966Z,82.29
2019-06-19T05:25:20.122Z,79.73
2019-06-19T05:26:20.279Z,80.30
2019-06-19T05:27:20.434Z,81.84
2019-06-19T05:28:20.589Z,81.98
2019-06-19T05:29:20.742Z,79.10
2019-06-19T05:30:20.908Z,78.52
2019-06-19T05:31:21.058Z,81.02
2019-06-19T05:32:33.241Z,81.21
2019-06-19T05:33:21.367Z,84.19
2019-06-19T05:34:21.523Z,87.22
2019-06-19T05:35:21.678Z,87.60
2019-06-19T05:36:21.833Z,89.24
2019-06-19T05:37:21.989Z,88.57
2019-06-19T05:38:22.146Z,88.09
2019-06-19T05:39:22.303Z,87.41
2019-06-19T05:40:22.457Z,85.10
2019-06-19T05:41:22.612Z,86.55
2019-06-19T05:42:22.769Z,86.35
2019-06-19T05:43:22.925Z,85.30
2019-06-19T05:44:23.080Z,85.82
2019-06-19T05:45:23.235Z,83.56
2019-06-19T05:46:23.390Z,86.88
2019-06-19T05:47:23.550Z,86.49
2019-06-19T05:48:23.706Z,88.57
2019-06-19T05:49:23.859Z,89.19
2019-06-19T05:50:24.015Z,88.81
2019-06-19T05:51:24.170Z,89.09
2019-06-19T05:52:24.328Z,92.08
2019-06-19T05:53:24.484Z,90.73
2019-06-19T05:54:24.640Z,88.51
2019-06-19T05:55:24.805Z,87.07
2019-06-19T05:56:24.959Z,88.04
2019-06-19T05:57:25.116Z,90.73
2019-06-19T05:58:25.271Z,90.64
2019-06-19T05:59:25.427Z,89.39
2019-06-19T06:00:25.584Z,88.90
2019-06-19T06:01:25.736Z,90.16
2019-06-19T06:02:25.898Z,89.19
2019-06-19T06:03:26.050Z,88.90
2019-06-19T06:04:26.210Z,89.58
2019-06-19T06:05:26.364Z,87.84
2019-06-19T06:06:26.534Z,87.98
2019-06-19T06:07:26.673Z,87.40
2019-06-19T06:08:27.012Z,88.71
2019-06-19T06:09:26.986Z,87.84
2019-06-19T06:10:27.144Z,88.32
2019-06-19T06:11:27.300Z,87.84
2019-06-19T06:12:27.455Z,88.51
2019-06-19T06:13:27.610Z,89.29
2019-06-19T06:14:27.768Z,90.10
2019-06-19T06:15:27.925Z,87.50
2019-06-19T06:16:28.079Z,87.50
2019-06-19T06:17:28.235Z,92.17
2019-06-19T06:18:28.426Z,92.90
2019-06-19T06:19:28.550Z,91.64
2019-06-19T06:20:28.705Z,87.70
2019-06-19T06:21:28.862Z,89.57
2019-06-19T06:22:29.022Z,89.76
2019-06-19T06:23:29.174Z,91.69
2019-06-19T06:24:29.342Z,90.24
2019-06-19T06:25:29.490Z,92.17
2019-06-19T06:26:29.645Z,92.94
2019-06-19T06:27:29.801Z,92.08
2019-06-19T06:28:29.962Z,92.85
2019-06-19T06:29:30.115Z,88.60
2019-06-19T06:30:30.313Z,92.90
2019-06-19T06:31:30.461Z,92.85
2019-06-19T06:32:30.591Z,91.02
2019-06-19T06:33:30.753Z,92.75
2019-06-19T06:34:30.926Z,93.76
2019-06-19T06:35:31.122Z,93.47
2019-06-19T06:36:31.240Z,92.32
2019-06-19T06:37:31.396Z,93.18
2019-06-19T06:38:32.857Z,91.35
2019-06-19T06:39:31.713Z,91.30
2019-06-19T06:40:46.935Z,90.81
2019-06-19T06:41:32.017Z,89.61
2019-06-19T06:42:32.177Z,93.18
2019-06-19T06:43:32.330Z,93.08
2019-06-19T06:44:32.487Z,94.58
2019-06-19T06:45:32.644Z,96.03
2019-06-19T06:46:32.799Z,96.12
2019-06-19T06:47:32.959Z,96.12
2019-06-19T06:48:33.125Z,94.68
2019-06-19T06:49:33.273Z,95.16
2019-06-19T06:50:33.426Z,95.35
2019-06-19T06:51:33.584Z,94.20
2019-06-19T06:52:33.739Z,94.72
2019-06-19T06:53:33.894Z,97.28
2019-06-19T06:54:34.050Z,97.81
2019-06-19T06:55:34.227Z,97.42
2019-06-19T06:56:34.362Z,98.49
2019-06-19T06:57:34.519Z,97.14
2019-06-19T06:58:34.678Z,98.30
2019-06-19T06:59:34.832Z,96.17
2019-06-19T07:00:34.989Z,99.79
2019-06-19T07:01:35.145Z,99.60
2019-06-19T07:02:35.302Z,96.41
2019-06-19T07:03:35.460Z,97.19
2019-06-19T07:04:35.620Z,99.99
2019-06-19T07:05:35.775Z,99.11
2019-06-19T07:06:35.933Z,98.73
2019-06-19T07:07:36.090Z,99.99
2019-06-19T07:08:36.251Z,99.99
2019-06-19T07:09:36.406Z,99.99
2019-06-19T07:10:36.563Z,98.93
2019-06-19T07:11:36.733Z,99.99
2019-06-19T07:12:36.876Z,99.99
2019-06-19T07:13:37.034Z,99.99
2019-06-19T07:14:37.192Z,99.99
2019-06-19T07:15:37.349Z,99.99
2019-06-19T07:16:37.505Z,99.99
2019-06-19T07:17:37.663Z,99.99
2019-06-19T07:18:37.821Z,99.99
2019-06-19T07:19:37.979Z,99.99
2019-06-19T07:20:38.139Z,99.99
2019-06-19T07:21:38.337Z,99.99
2019-06-19T07:22:38.458Z,99.99
2019-06-19T07:23:38.623Z,99.99
2019-06-19T07:24:38.775Z,99.99
2019-06-19T07:25:38.932Z,99.99
2019-06-19T07:26:52.254Z,99.99
2019-06-19T07:27:39.247Z,99.99
2019-06-19T07:28:39.404Z,99.99
2019-06-19T07:29:39.567Z,99.99
2019-06-19T07:30:39.727Z,99.99
2019-06-19T07:31:39.880Z,99.99
2019-06-19T07:32:40.039Z,99.99
2019-06-19T07:33:41.628Z,99.99
2019-06-19T07:34:40.355Z,99.99
2019-06-19T07:35:40.512Z,99.99
2019-06-19T07:36:40.669Z,99.99
2019-06-19T07:37:40.836Z,99.99
2019-06-19T07:38:40.991Z,99.99
2019-06-19T07:39:41.152Z,99.99
2019-06-19T07:40:41.300Z,99.99
2019-06-19T07:41:41.465Z,99.99
2019-06-19T07:42:41.617Z,99.99
2019-06-19T07:43:41.778Z,99.99
2019-06-19T07:44:41.937Z,99.99
2019-06-19T07:45:42.092Z,99.99
2019-06-19T07:46:42.252Z,99.99
2019-06-19T07:47:42.409Z,99.99
2019-06-19T07:48:42.567Z,99.99
2019-06-19T07:49:42.727Z,99.99
2019-06-19T07:50:42.885Z,99.99
2019-06-19T07:51:43.043Z,99.99
2019-06-19T07:52:43.204Z,99.99
2019-06-19T07:53:43.362Z,99.99
2019-06-19T07:54:43.520Z,99.99
2019-06-19T07:55:43.679Z,99.99
2019-06-19T07:56:43.836Z,99.99
2019-06-19T07:57:44.125Z,99.99
2019-06-19T07:58:44.155Z,99.99
2019-06-19T07:59:44.315Z,99.99
2019-06-19T08:00:44.465Z,99.99
2019-06-19T08:01:44.624Z,99.99
2019-06-19T08:02:44.784Z,99.99
2019-06-19T08:03:57.454Z,99.99
2019-06-19T08:04:45.109Z,99.99
2019-06-19T08:05:45.262Z,99.99
2019-06-19T08:06:45.423Z,99.99
2019-06-19T08:07:45.580Z,99.99
2019-06-19T08:08:45.743Z,99.99
2019-06-19T08:09:45.899Z,99.99
2019-06-19T08:10:46.057Z,99.99
2019-06-19T08:11:46.215Z,99.99
2019-06-19T08:12:46.383Z,99.99
2019-06-19T08:13:46.544Z,99.99
2019-06-19T08:14:46.693Z,99.99
2019-06-19T08:15:46.851Z,99.99
2019-06-19T08:16:47.011Z,99.99
2019-06-19T08:17:47.171Z,99.85
2019-06-19T08:18:47.337Z,99.70
2019-06-19T08:19:47.491Z,99.75
2019-06-19T08:20:47.650Z,98.88
2019-06-19T08:21:47.807Z,99.65
2019-06-19T08:22:47.982Z,98.68
2019-06-19T08:23:48.141Z,98.63
2019-06-19T08:24:48.288Z,99.99
2019-06-19T08:25:50.699Z,99.99
2019-06-19T08:26:48.615Z,99.99
2019-06-19T08:27:48.799Z,99.99
2019-06-19T08:28:48.926Z,98.73
2019-06-19T08:29:49.085Z,96.79
2019-06-19T08:30:49.247Z,99.80
2019-06-19T08:31:49.415Z,97.71
2019-06-19T08:32:49.564Z,99.99
2019-06-19T08:33:49.724Z,96.11
2019-06-19T08:34:49.952Z,99.99
2019-06-19T08:35:50.044Z,99.99
2019-06-19T08:36:50.203Z,99.99
2019-06-19T08:37:50.370Z,99.46
2019-06-19T08:38:50.521Z,98.30
2019-06-19T08:39:50.690Z,99.99
2019-06-19T08:41:00.449Z,98.20
2019-06-19T08:41:51.005Z,97.13
2019-06-19T08:42:51.158Z,96.59
2019-06-19T08:43:51.331Z,97.37
2019-06-19T08:44:51.494Z,94.65
2019-06-19T08:45:51.642Z,98.25
2019-06-19T08:46:51.802Z,96.74
2019-06-19T08:47:51.962Z,94.26
2019-06-19T08:48:52.121Z,84.39
2019-06-19T08:49:52.280Z,84.20
2019-06-19T08:50:52.443Z,82.78
2019-06-19T08:51:52.598Z,83.46
2019-06-19T08:52:52.757Z,83.17
2019-06-19T08:53:52.920Z,83.60
2019-06-19T08:54:53.080Z,78.05
2019-06-19T08:55:53.241Z,78.25
2019-06-19T08:56:53.405Z,80.48
2019-06-19T08:57:53.561Z,81.46
2019-06-19T08:58:53.721Z,75.81
2019-06-19T08:59:53.885Z,73.67
2019-06-19T09:00:54.042Z,73.08
2019-06-19T09:01:54.202Z,76.30
2019-06-19T09:02:54.373Z,75.91
2019-06-19T09:03:54.527Z,74.19
2019-06-19T09:04:54.685Z,73.90
2019-06-19T09:05:54.845Z,71.17
2019-06-19T09:06:55.009Z,69.71
2019-06-19T09:07:55.169Z,67.60
2019-06-19T09:08:55.326Z,68.29
2019-06-19T09:09:55.488Z,71.11
2019-06-19T09:10:55.646Z,68.09
2019-06-19T09:11:55.806Z,68.77
2019-06-19T09:12:55.967Z,67.90
2019-06-19T09:13:56.131Z,69.23
2019-06-19T09:14:56.290Z,70.62
2019-06-19T09:15:56.456Z,72.77
2019-06-19T09:16:56.615Z,70.82
2019-06-19T09:17:56.782Z,73.58
2019-06-19T09:18:56.935Z,68.23
2019-06-19T09:19:57.094Z,65.07
2019-06-19T09:20:57.261Z,65.46
2019-06-19T09:21:57.428Z,65.69
2019-06-19T09:22:57.580Z,66.56
2019-06-19T09:23:57.746Z,62.54
2019-06-19T09:24:57.907Z,63.32
2019-06-19T09:25:58.065Z,62.86
2019-06-19T09:26:58.234Z,65.07
2019-06-19T09:27:58.394Z,65.69
2019-06-19T09:28:58.554Z,64.52
2019-06-19T09:29:58.715Z,62.66
2019-06-19T09:30:58.877Z,61.60
2019-06-19T09:31:59.035Z,63.77
2019-06-19T09:32:59.199Z,67.67
2019-06-19T09:33:59.358Z,66.41
2019-06-19T09:34:59.520Z,63.64
2019-06-19T09:35:59.681Z,64.23
2019-06-19T09:36:59.843Z,63.67
2019-06-19T09:38:00.006Z,66.21
2019-06-19T09:39:00.165Z,60.55
2019-06-19T09:40:02.587Z,57.14
2019-06-19T09:41:00.486Z,56.04
2019-06-19T09:42:00.648Z,55.94
2019-06-19T09:43:00.809Z,55.85
2019-06-19T09:44:00.975Z,56.62
2019-06-19T09:45:01.132Z,58.80
2019-06-19T09:46:01.291Z,59.48
2019-06-19T09:47:01.453Z,58.89
2019-06-19T09:48:01.632Z,57.63
2019-06-19T09:49:01.782Z,56.46
2019-06-19T09:50:01.941Z,57.17
2019-06-19T09:51:02.178Z,55.41
2019-06-19T09:52:02.285Z,55.12
2019-06-19T09:53:02.422Z,55.80
2019-06-19T09:54:04.507Z,55.71
2019-06-19T09:55:02.744Z,55.80
2019-06-19T09:56:02.908Z,55.90
2019-06-19T09:57:03.124Z,53.75
2019-06-19T09:58:03.230Z,52.58
2019-06-19T09:59:03.395Z,52.09
2019-06-19T10:00:03.570Z,51.80
2019-06-19T10:01:03.714Z,51.87
2019-06-19T10:02:03.902Z,52.36
2019-06-19T10:03:04.037Z,53.85
2019-06-19T10:04:04.201Z,55.83
2019-06-19T10:05:07.479Z,54.27
2019-06-19T10:06:04.521Z,53.09
2019-06-19T10:07:04.685Z,53.97
2019-06-19T10:08:04.844Z,55.27
2019-06-19T10:09:05.003Z,51.34
2019-06-19T10:10:05.168Z,51.63
2019-06-19T10:11:05.335Z,51.04
2019-06-19T10:12:05.494Z,52.90
2019-06-19T10:13:05.654Z,53.91
2019-06-19T10:14:05.820Z,53.03
2019-06-19T10:15:05.982Z,51.46
2019-06-19T10:16:06.138Z,50.78
2019-06-19T10:17:06.298Z,50.75
2019-06-19T10:18:06.459Z,50.46
2019-06-19T10:19:06.623Z,52.83
2019-06-19T10:20:06.789Z,51.76
2019-06-19T10:21:06.945Z,52.15
2019-06-19T10:22:07.114Z,53.91
2019-06-19T10:23:07.273Z,54.30
2019-06-19T10:24:07.429Z,53.52
2019-06-19T10:25:07.727Z,52.83
2019-06-19T10:26:07.747Z,53.52
2019-06-19T10:27:07.907Z,53.71
2019-06-19T10:28:08.071Z,52.73
2019-06-19T10:29:08.227Z,53.13
2019-06-19T10:30:08.389Z,52.86
2019-06-19T10:31:08.549Z,52.15
2019-06-19T10:32:09.974Z,52.61
2019-06-19T10:33:08.875Z,53.29
2019-06-19T10:34:09.039Z,54.79
2019-06-19T10:35:23.029Z,56.05
2019-06-19T10:36:09.360Z,53.61
2019-06-19T10:37:09.540Z,52.15
2019-06-19T10:38:09.687Z,51.07
2019-06-19T10:39:09.849Z,52.54
2019-06-19T10:40:10.060Z,53.03
2019-06-19T10:41:10.168Z,51.86
2019-06-19T10:42:10.327Z,50.46
2019-06-19T10:43:10.495Z,51.27
2019-06-19T10:44:10.653Z,52.05
2019-06-19T10:45:10.811Z,51.29
2019-06-19T10:46:10.980Z,51.07
2019-06-19T10:47:11.132Z,50.39
2019-06-19T10:48:11.311Z,50.98
2019-06-19T10:49:13.636Z,51.43
2019-06-19T10:50:11.618Z,51.76
2019-06-19T10:51:11.801Z,51.29
2019-06-19T10:52:11.944Z,50.61
2019-06-19T10:53:12.105Z,48.85
2019-06-19T10:54:12.267Z,47.77
2019-06-19T10:55:12.429Z,47.46
2019-06-19T10:56:12.596Z,48.65
2019-06-19T10:57:12.754Z,48.19
2019-06-19T10:58:12.911Z,49.04
2019-06-19T10:59:13.066Z,48.55
2019-06-19T11:00:13.223Z,47.87
2019-06-19T11:01:13.405Z,46.60
2019-06-19T11:02:13.595Z,46.68
2019-06-19T11:03:13.728Z,46.21
2019-06-19T11:04:13.886Z,46.58
2019-06-19T11:05:14.043Z,46.99
2019-06-19T11:06:14.204Z,47.21
2019-06-19T11:07:14.367Z,48.02
2019-06-19T11:08:14.528Z,46.65
2019-06-19T11:09:14.685Z,47.24
2019-06-19T11:10:14.974Z,47.65
2019-06-19T11:11:15.029Z,47.55
2019-06-19T11:12:15.191Z,47.16
2019-06-19T11:13:15.355Z,47.55
2019-06-19T11:14:15.514Z,47.14
2019-06-19T11:15:15.676Z,47.21
2019-06-19T11:16:15.839Z,48.31
2019-06-19T11:17:15.996Z,48.68
2019-06-19T11:18:16.156Z,49.19
2019-06-19T11:19:16.317Z,49.58
2019-06-19T11:20:16.476Z,48.80
2019-06-19T11:21:16.637Z,49.46
2019-06-19T11:22:16.798Z,49.75
2019-06-19T11:23:16.959Z,49.85
2019-06-19T11:24:17.123Z,50.44
2019-06-19T11:25:17.286Z,51.12
2019-06-19T11:26:17.448Z,50.71
2019-06-19T11:27:17.612Z,51.88
2019-06-19T11:28:17.771Z,51.90
2019-06-19T11:29:17.944Z,55.81
2019-06-19T11:30:18.132Z,52.93
2019-06-19T11:31:18.264Z,52.12
2019-06-19T11:32:18.425Z,52.42
2019-06-19T11:33:18.729Z,52.25
2019-06-19T11:34:18.745Z,52.73
2019-06-19T11:35:18.912Z,51.37
2019-06-19T11:36:19.075Z,50.59
2019-06-19T11:37:19.250Z,50.59
2019-06-19T11:38:19.408Z,49.31
2019-06-19T11:39:19.567Z,49.29
2019-06-19T11:40:19.731Z,48.80
2019-06-19T11:41:19.889Z,48.41
2019-06-19T11:42:20.053Z,48.31
2019-06-19T11:43:20.215Z,48.68
2019-06-19T11:44:20.378Z,48.65
2019-06-19T11:45:20.544Z,49.33
2019-06-19T11:46:20.714Z,48.65
2019-06-19T11:47:20.864Z,49.24
2019-06-19T11:48:21.032Z,50.15
2019-06-19T11:49:21.191Z,48.11
2019-06-19T11:50:24.147Z,48.28
2019-06-19T11:51:21.519Z,48.41
2019-06-19T11:52:21.678Z,48.77
2019-06-19T11:53:21.839Z,48.80
2019-06-19T11:54:22.008Z,47.89
2019-06-19T11:55:22.165Z,47.99
2019-06-19T11:56:22.330Z,48.21
2019-06-19T11:57:22.492Z,48.21
2019-06-19T11:58:22.654Z,48.72
2019-06-19T11:59:22.814Z,48.14
2019-06-19T12:00:23.183Z,47.75
2019-06-19T12:01:23.135Z,48.72
2019-06-19T12:02:23.300Z,48.63
2019-06-19T12:03:27.038Z,50.98
2019-06-19T12:04:23.623Z,48.43
2019-06-19T12:05:23.786Z,48.04
2019-06-19T12:06:23.953Z,46.45
2019-06-19T12:07:24.195Z,47.26
2019-06-19T12:08:24.280Z,47.36
2019-06-19T12:09:24.457Z,46.86
2019-06-19T12:10:24.608Z,45.50
2019-06-19T12:11:24.767Z,43.54
2019-06-19T12:12:24.935Z,42.07
2019-06-19T12:13:25.094Z,41.58
2019-06-19T12:14:25.256Z,43.63
2019-06-19T12:15:25.421Z,44.13
2019-06-19T12:16:25.584Z,45.30
2019-06-19T12:17:29.156Z,45.28
2019-06-19T12:18:25.910Z,46.28
2019-06-19T12:19:26.079Z,45.30
2019-06-19T12:20:26.272Z,46.30
2019-06-19T12:21:26.405Z,47.45
2019-06-19T12:22:26.564Z,45.50
2019-06-19T12:23:26.771Z,45.30
2019-06-19T12:24:26.887Z,45.81
2019-06-19T12:25:27.049Z,47.38
2019-06-19T12:26:27.216Z,45.52
2019-06-19T12:27:27.377Z,45.13
2019-06-19T12:28:27.542Z,46.50
2019-06-19T12:29:27.702Z,44.64
2019-06-19T12:30:27.864Z,44.91
2019-06-19T12:31:28.030Z,45.52
2019-06-19T12:32:28.230Z,45.91
2019-06-19T12:33:28.355Z,44.64
2019-06-19T12:34:28.514Z,44.85
2019-06-19T12:35:28.678Z,44.66
2019-06-19T12:36:30.109Z,43.88
2019-06-19T12:37:29.019Z,43.46
2019-06-19T12:38:29.169Z,42.97
2019-06-19T12:39:29.331Z,43.66
2019-06-19T12:40:29.495Z,42.99
2019-06-19T12:41:29.659Z,42.02
2019-06-19T12:42:31.517Z,41.52
2019-06-19T12:43:29.989Z,41.33
2019-06-19T12:44:30.150Z,42.02
2019-06-19T12:45:30.317Z,42.21
2019-06-19T12:46:30.477Z,43.58
2019-06-19T12:47:30.639Z,42.29
2019-06-19T12:48:30.803Z,43.09
2019-06-19T12:49:30.970Z,42.31
2019-06-19T12:50:31.138Z,41.52
2019-06-19T12:51:31.295Z,42.09
2019-06-19T12:52:31.460Z,41.41
2019-06-19T12:53:31.623Z,42.38
2019-06-19T12:54:31.785Z,41.33